Time;durP1;ratioP1;P1;durP2;ratioP2;P2;SDS_P1;SDS_P2;PMS_P1;PMS_P2;Temp;Humidity;BMP_temperature;BMP_pressure;BME280_temperature;BME280_humidity;BME280_pressure;Samples;Min_cycle;Max_cycle;Signal;HPM_P1;HPM_P2
2021/04/20 00:01:17;;;;;;;2.33;1.88;;;;;;;25.56;30.42;96659.22;5068099;28;20093;-24
2021/04/20 00:03:42;;;;;;;4.97;2.45;;;;;;;25.57;30.66;96655.66;5066679;28;20024;-29
2021/04/20 00:06:08;;;;;;;2.95;2.03;;;;;;;25.58;30.49;96662.59;5068607;28;20130;-29
2021/04/20 00:08:34;;;;;;;2.53;1.80;;;;;;;25.57;30.50;96656.53;5067963;28;20074;-25
2021/04/20 00:10:59;;;;;;;2.42;1.80;;;;;;;25.58;30.56;96652.09;5066811;28;20073;-28
2021/04/20 00:13:25;;;;;;;3.00;2.10;;;;;;;25.57;30.59;96655.66;5067328;28;20043;-26
2021/04/20 00:15:53;;;;;;;2.78;2.10;;;;;;;25.57;30.57;96651.28;5065889;28;20031;-26
2021/04/20 00:18:18;;;;;;;2.42;1.60;;;;;;;25.58;30.50;96649.47;5068814;28;20028;-30
2021/04/20 00:20:46;;;;;;;2.00;1.60;;;;;;;25.57;30.66;96646.03;5061915;28;20032;-29
2021/04/20 00:23:11;;;;;;;2.35;1.90;;;;;;;25.57;30.59;96640.78;5069232;28;20032;-24
2021/04/20 00:25:37;;;;;;;2.65;1.98;;;;;;;25.57;30.48;96640.78;5067767;28;20035;-26
2021/04/20 00:28:02;;;;;;;2.58;1.80;;;;;;;25.57;30.47;96635.53;5067916;28;20039;-26
2021/04/20 00:30:28;;;;;;;3.35;1.85;;;;;;;25.57;30.62;96640.78;5068288;28;20032;-27
2021/04/20 00:32:53;;;;;;;1.95;1.60;;;;;;;25.57;30.59;96632.06;5067280;28;20024;-26
2021/04/20 00:35:18;;;;;;;2.10;1.70;;;;;;;25.57;30.54;96635.53;5065924;28;20458;-24
2021/04/20 00:37:44;;;;;;;2.22;1.83;;;;;;;25.57;30.58;96625.03;5065491;28;20023;-25
2021/04/20 00:40:11;;;;;;;3.08;1.92;;;;;;;25.57;30.62;96632.91;5063867;28;20024;-26
2021/04/20 00:42:51;;;;;;;5.13;2.05;;;;;;;25.57;30.51;96624.19;5065522;28;20109;-25
2021/04/20 00:45:18;;;;;;;2.47;1.70;;;;;;;25.57;30.65;96635.53;5083450;28;20078;-24
2021/04/20 00:47:43;;;;;;;2.92;1.55;;;;;;;-148.56;100.00;61375.16;5069521;28;20032;-28
2021/04/20 00:50:10;;;;;;;2.17;1.48;;;;;;;25.57;30.46;96630.28;5067322;28;20559;-24
2021/04/20 00:52:35;;;;;;;2.13;1.50;;;;;;;25.56;30.50;96628.56;5062390;28;20032;-29
2021/04/20 00:55:01;;;;;;;3.40;1.77;;;;;;;25.56;30.48;96622.50;5066541;28;20496;-26
2021/04/20 00:57:26;;;;;;;2.42;1.65;;;;;;;25.56;30.47;96625.94;5067986;28;20085;-28
2021/04/20 00:59:52;;;;;;;2.17;1.60;;;;;;;-148.56;100.00;61375.16;5065044;28;20028;-24
2021/04/20 01:02:18;;;;;;;2.38;1.70;;;;;;;25.57;30.50;96619.78;5065417;28;20040;-25
2021/04/20 01:04:43;;;;;;;2.38;1.60;;;;;;;25.57;30.54;96614.53;5068068;28;20036;-25
2021/04/20 01:07:08;;;;;;;1.73;1.60;;;;;;;25.56;30.58;96612.81;5067724;28;20027;-26
2021/04/20 01:09:34;;;;;;;2.92;1.80;;;;;;;25.59;30.44;96618.84;5050812;28;20834;-27
2021/04/20 01:11:59;;;;;;;1.77;1.55;;;;;;;25.57;30.48;96619.78;5051443;28;20020;-25
2021/04/20 01:14:25;;;;;;;2.25;1.70;;;;;;;25.57;30.61;96613.69;5068987;28;20031;-30
2021/04/20 01:16:50;;;;;;;2.15;1.67;;;;;;;25.56;30.48;96610.19;5066020;28;20028;-26
2021/04/20 01:19:16;;;;;;;2.50;1.70;;;;;;;25.56;30.46;96612.81;5052958;28;20032;-22
2021/04/20 01:21:42;;;;;;;4.30;1.77;;;;;;;25.55;30.41;96611.09;5056861;28;20024;-26
2021/04/20 01:24:07;;;;;;;2.60;1.60;;;;;;;25.55;30.35;96611.09;5068224;28;20101;-27
2021/04/20 01:26:35;;;;;;;1.55;1.30;;;;;;;25.55;30.41;96615.53;5070026;28;20557;-27
2021/04/20 01:29:01;;;;;;;2.53;1.48;;;;;;;25.56;30.35;96619.88;5066109;28;20621;-28
2021/04/20 01:31:27;;;;;;;1.67;1.40;;;;;;;25.55;30.30;96615.53;5066035;28;20028;-27
2021/04/20 01:33:52;;;;;;;2.20;1.48;;;;;;;25.55;30.57;96616.34;5065532;28;20466;-26
2021/04/20 01:36:19;;;;;;;1.60;1.50;;;;;;;25.55;30.39;96616.34;5067117;28;20404;-25
2021/04/20 01:38:45;;;;;;;2.28;1.50;;;;;;;25.55;30.47;96615.53;5069096;28;20070;-24
2021/04/20 01:41:11;;;;;;;2.35;1.80;;;;;;;25.54;30.33;96619.91;5068749;28;20024;-23
2021/04/20 01:43:36;;;;;;;2.95;1.70;;;;;;;25.54;30.39;96619.91;5068634;28;20024;-26
2021/04/20 01:46:02;;;;;;;1.98;1.60;;;;;;;25.54;30.27;96619.91;5067812;28;20024;-26
2021/04/20 01:48:28;;;;;;;2.30;1.40;;;;;;;25.54;30.27;96619.91;5068666;28;20399;-23
2021/04/20 01:51:52;;;;;;;2.03;1.48;;;;;;;-148.56;100.00;61375.16;5067279;28;20031;-25
2021/04/20 01:54:17;;;;;;;2.35;1.40;;;;;;;25.58;30.26;96615.38;5064532;28;20187;-24
2021/04/20 01:56:43;;;;;;;1.73;1.27;;;;;;;25.56;30.16;96618.06;5070230;28;20062;-25
2021/04/20 01:59:09;;;;;;;3.38;1.90;;;;;;;25.54;30.40;96619.91;5064585;28;20499;-26
2021/04/20 02:01:34;;;;;;;2.58;1.40;;;;;;;25.54;30.35;96616.44;5051367;28;20040;-25
2021/04/20 02:03:59;;;;;;;2.50;1.80;;;;;;;25.55;30.25;96626.84;5049634;28;20037;-29
2021/04/20 02:06:25;;;;;;;2.75;1.33;;;;;;;25.54;30.31;96619.06;5065504;28;20062;-26
2021/04/20 02:08:50;;;;;;;3.15;1.80;;;;;;;25.53;30.26;96623.47;5053827;28;20031;-28
2021/04/20 02:11:17;;;;;;;6.30;2.40;;;;;;;25.52;30.42;96619.13;5065768;28;20423;-26
2021/04/20 02:13:43;;;;;;;5.25;2.00;;;;;;;25.53;30.34;96617.38;5065126;28;20025;-26
2021/04/20 02:16:08;;;;;;;1.55;1.38;;;;;;;25.53;30.25;96615.59;5050817;28;20596;-23
2021/04/20 02:18:41;;;;;;;4.65;1.52;;;;;;;25.54;30.38;96619.91;5067323;28;20025;-29
2021/04/20 02:21:07;;;;;;;2.17;1.67;;;;;;;25.53;30.35;96612.13;5061366;28;20032;-27
2021/04/20 02:23:32;;;;;;;1.92;1.50;;;;;;;25.52;30.42;96616.50;5048677;28;20035;-26
2021/04/20 02:26:06;;;;;;;1.95;1.30;;;;;;;25.52;30.41;96615.69;5063554;28;21738;-24
2021/04/20 02:28:32;;;;;;;2.60;1.40;;;;;;;25.53;30.28;96617.38;5049643;28;20618;-26
2021/04/20 02:30:59;;;;;;;2.08;1.77;;;;;;;25.52;30.26;96615.69;5066367;28;20036;-24
2021/04/20 02:33:27;;;;;;;1.85;1.48;;;;;;;25.52;30.32;96616.50;5063016;28;20123;-23
2021/04/20 02:35:54;;;;;;;2.67;1.58;;;;;;;25.52;30.26;96616.50;5064119;28;20669;-25
2021/04/20 02:38:20;;;;;;;2.47;1.83;;;;;;;25.51;30.31;96620.06;5065651;28;20032;-26
2021/04/20 02:40:45;;;;;;;1.80;1.38;;;;;;;25.51;30.12;96614.00;5050399;28;20031;-25
2021/04/20 02:43:10;;;;;;;1.58;1.48;;;;;;;25.51;30.26;96622.69;5066052;28;20024;-26
2021/04/20 02:45:36;;;;;;;2.65;1.55;;;;;;;25.51;30.41;96620.06;5065534;28;20082;-25
2021/04/20 02:48:04;;;;;;;2.05;1.55;;;;;;;25.51;30.20;96614.00;5062633;28;20029;-27
2021/04/20 02:50:29;;;;;;;2.28;1.55;;;;;;;25.51;30.24;96614.81;5043656;28;20037;-27
2021/04/20 02:52:58;;;;;;;2.05;1.58;;;;;;;25.51;30.29;96611.38;5063527;28;20039;-26
2021/04/20 02:55:23;;;;;;;1.65;1.50;;;;;;;25.51;30.18;96620.06;5066465;28;20044;-26
2021/04/20 02:57:52;;;;;;;2.78;1.65;;;;;;;25.49;30.25;96615.84;5067033;28;20142;-27
2021/04/20 03:00:19;;;;;;;2.55;1.65;;;;;;;25.50;30.09;96615.75;5061160;28;20043;-29
2021/04/20 03:02:45;;;;;;;2.10;1.48;;;;;;;25.49;30.34;96616.69;5067672;28;20028;-25
2021/04/20 03:05:15;;;;;;;1.25;1.15;;;;;;;25.49;30.23;96616.69;5068581;28;20020;-30
2021/04/20 03:07:41;;;;;;;2.00;1.30;;;;;;;25.48;30.39;96609.78;5061257;28;20024;-27
2021/04/20 03:10:07;;;;;;;1.30;1.20;;;;;;;25.49;30.32;96606.22;5058917;28;20536;-28
2021/04/20 03:12:34;;;;;;;5.45;1.77;;;;;;;25.49;30.20;96606.22;5066206;28;20075;-27
2021/04/20 03:15:00;;;;;;;1.67;1.20;;;;;;;25.49;30.18;96606.22;5068205;28;20067;-30
2021/04/20 03:17:25;;;;;;;2.42;1.35;;;;;;;25.48;30.26;96599.28;5062957;28;20040;-24
2021/04/20 03:19:50;;;;;;;1.92;1.20;;;;;;;25.48;30.13;96599.28;5060998;28;20032;-27
2021/04/20 03:22:16;;;;;;;2.95;1.48;;;;;;;25.48;30.40;96599.28;5068286;28;20040;-26
2021/04/20 03:25:06;;;;;;;1.20;1.10;;;;;;;25.49;30.22;96600.97;5064936;28;20572;-27
2021/04/20 03:27:32;;;;;;;1.60;1.33;;;;;;;25.49;30.14;96595.72;5065523;28;20078;-29
2021/04/20 03:29:57;;;;;;;1.33;1.20;;;;;;;25.47;30.28;96591.47;5064540;28;20016;-23
2021/04/20 03:32:23;;;;;;;2.05;1.40;;;;;;;25.48;30.31;96594.03;5064942;28;20036;-25
2021/04/20 03:34:59;;;;;;;3.15;1.30;;;;;;;25.48;30.32;96596.66;5067039;28;20032;-26
2021/04/20 03:37:52;;;;;;;1.25;1.15;;;;;;;25.47;30.11;96594.94;5066413;28;20032;-25
2021/04/20 03:40:19;;;;;;;1.83;1.30;;;;;;;25.46;30.16;96593.25;5059699;28;20139;-25
2021/04/20 03:42:48;;;;;;;2.85;1.13;;;;;;;25.47;30.15;96597.56;5064585;28;20617;-25
2021/04/20 03:45:16;;;;;;;2.50;1.35;;;;;;;25.45;30.14;96594.19;5060716;28;20036;-24
2021/04/20 03:47:47;;;;;;;2.58;1.05;;;;;;;25.45;30.21;96600.25;5061101;28;20082;-28
2021/04/20 03:50:18;;;;;;;1.63;1.20;;;;;;;25.46;30.10;96590.63;5051088;28;20020;-27
2021/04/20 03:52:47;;;;;;;1.17;1.08;;;;;;;25.47;30.10;96594.94;5070749;28;20036;-26
2021/04/20 03:55:13;;;;;;;1.48;1.38;;;;;;;25.47;30.13;96602.81;5063203;28;20032;-25
2021/04/20 03:57:39;;;;;;;1.30;0.88;;;;;;;25.49;30.13;96593.09;5068044;28;20048;-24
2021/04/20 04:00:06;;;;;;;2.10;1.23;;;;;;;25.46;30.01;96590.63;5064641;28;20021;-24
2021/04/20 04:02:34;;;;;;;1.35;1.23;;;;;;;25.45;30.07;96588.94;5085899;28;20067;-25
2021/04/20 04:04:59;;;;;;;1.60;0.95;;;;;;;25.47;30.08;96592.31;5052568;28;20040;-27
2021/04/20 04:07:25;;;;;;;1.40;1.13;;;;;;;25.46;29.85;96585.38;5069173;28;20036;-27
2021/04/20 04:09:50;;;;;;;1.85;1.25;;;;;;;25.47;30.27;96589.69;5064181;28;20073;-27
2021/04/20 04:12:16;;;;;;;1.73;1.30;;;;;;;25.45;30.06;96591.56;5059334;28;20023;-25
2021/04/20 04:14:42;;;;;;;1.27;1.10;;;;;;;25.46;30.24;96595.88;5066653;28;20310;-28
2021/04/20 04:17:08;;;;;;;1.23;1.13;;;;;;;25.45;30.14;96589.78;5050139;28;20024;-27
2021/04/20 04:19:44;;;;;;;1.85;1.27;;;;;;;25.46;30.23;96590.63;5081709;28;20046;-30
2021/04/20 04:22:17;;;;;;;1.80;1.20;;;;;;;25.46;30.13;96593.25;5066065;28;20107;-28
2021/04/20 04:24:56;;;;;;;1.10;0.90;;;;;;;25.45;30.04;96594.19;5065910;28;20552;-26
2021/04/20 04:27:23;;;;;;;1.75;1.15;;;;;;;25.45;30.13;96588.94;5067995;28;20618;-22
2021/04/20 04:29:49;;;;;;;1.45;1.17;;;;;;;25.45;30.00;96599.44;5065170;28;20040;-28
2021/04/20 04:32:18;;;;;;;1.70;1.15;;;;;;;25.44;30.11;96595.13;5065150;28;20032;-25
2021/04/20 04:34:44;;;;;;;1.45;1.20;;;;;;;25.44;30.06;96593.34;5070493;28;20036;-27
2021/04/20 04:37:09;;;;;;;1.63;1.10;;;;;;;25.45;30.00;96594.19;5065531;28;20028;-25
2021/04/20 04:39:35;;;;;;;1.98;1.00;;;;;;;25.44;30.08;96595.94;5068424;28;20074;-25
2021/04/20 04:42:00;;;;;;;2.10;1.30;;;;;;;25.44;30.31;96592.50;5069050;28;20019;-27
2021/04/20 04:44:25;;;;;;;1.88;1.00;;;;;;;25.44;30.10;96598.56;5069893;28;20027;-26
2021/04/20 04:46:51;;;;;;;3.45;1.23;;;;;;;25.45;30.02;96592.38;5065079;28;20085;-27
2021/04/20 04:49:16;;;;;;;1.30;1.20;;;;;;;25.44;30.13;96605.63;5068490;28;20036;-24
2021/04/20 04:51:42;;;;;;;1.23;1.13;;;;;;;25.45;29.99;96607.31;5050999;28;20036;-27
2021/04/20 04:54:13;;;;;;;1.38;1.08;;;;;;;25.43;30.07;96601.28;5066917;28;20071;-25
2021/04/20 04:56:42;;;;;;;1.10;1.00;;;;;;;25.44;30.11;96605.63;5053488;28;20059;-27
2021/04/20 04:59:08;;;;;;;0.93;0.80;;;;;;;25.42;30.11;96603.06;5066867;28;20078;-25
2021/04/20 05:01:37;;;;;;;1.73;1.10;;;;;;;25.43;30.00;96612.63;5063081;28;20031;-26
2021/04/20 05:04:07;;;;;;;1.10;1.00;;;;;;;25.43;30.14;96611.78;5067228;28;20020;-25
2021/04/20 05:06:33;;;;;;;1.15;0.90;;;;;;;25.42;30.13;96613.56;5069058;28;20093;-26
2021/04/20 05:08:59;;;;;;;1.10;1.00;;;;;;;25.43;29.98;96622.25;5066572;28;20032;-27
2021/04/20 05:11:24;;;;;;;1.02;0.85;;;;;;;25.43;29.90;96617.03;5066004;28;20028;-26
2021/04/20 05:13:50;;;;;;;2.63;1.10;;;;;;;25.43;29.98;96617.03;5066434;28;20419;-28
2021/04/20 05:16:15;;;;;;;2.25;1.05;;;;;;;25.41;29.94;96613.66;5067211;28;20585;-27
2021/04/20 05:18:41;;;;;;;1.30;1.10;;;;;;;25.41;29.96;96613.66;5067699;28;20508;-28
2021/04/20 05:21:06;;;;;;;1.40;1.00;;;;;;;25.42;30.11;96615.34;5045792;28;20035;-26
2021/04/20 05:23:32;;;;;;;1.20;1.00;;;;;;;25.41;30.05;96609.25;5066592;28;20031;-25
2021/04/20 05:25:57;;;;;;;2.17;0.95;;;;;;;25.42;29.87;96610.09;5053830;28;20532;-28
2021/04/20 05:28:22;;;;;;;0.80;0.80;;;;;;;25.42;30.08;96602.22;5068567;28;20036;-23
2021/04/20 05:30:48;;;;;;;2.08;0.90;;;;;;;25.42;29.98;96610.09;5063659;28;20568;-27
2021/04/20 05:33:14;;;;;;;1.20;1.00;;;;;;;25.42;29.88;96610.09;5066320;28;20058;-28
2021/04/20 05:35:40;;;;;;;1.63;0.93;;;;;;;25.40;30.02;96610.16;5052642;28;20016;-27
2021/04/20 05:38:06;;;;;;;1.00;0.90;;;;;;;25.37;29.92;96601.63;5048811;28;20371;-26
2021/04/20 05:40:36;;;;;;;0.70;0.70;;;;;;;25.41;30.04;96616.28;5065062;28;20492;-29
2021/04/20 05:43:01;;;;;;;0.80;0.80;;;;;;;25.41;29.90;96618.91;5064158;28;20131;-27
2021/04/20 05:45:27;;;;;;;1.92;0.80;;;;;;;25.40;30.01;96615.41;5069219;28;20032;-27
2021/04/20 05:47:52;;;;;;;0.80;0.63;;;;;;;25.41;29.92;96621.50;5065674;28;20044;-25
2021/04/20 05:50:56;;;;;;;0.73;0.73;;;;;;;-148.56;100.00;61375.16;5068611;28;20065;-26
2021/04/20 05:53:27;;;;;;;0.98;0.65;;;;;;;-148.56;100.00;61375.16;5066688;28;20027;-24
2021/04/20 05:56:06;;;;;;;0.80;0.80;;;;;;;-148.56;100.00;61375.16;5067129;28;20028;-28
2021/04/20 05:58:32;;;;;;;1.05;0.70;;;;;;;-148.56;100.00;61375.16;5061770;28;20683;-28
2021/04/20 06:01:15;;;;;;;1.10;0.95;;;;;;;-148.56;100.00;61375.16;5068002;28;20131;-26
2021/04/20 06:03:41;;;;;;;1.92;0.80;;;;;;;-148.56;100.00;61375.16;5034616;28;20032;-26
2021/04/20 06:06:07;;;;;;;3.17;0.88;;;;;;;-148.56;100.00;61375.16;5084935;28;20047;-28
2021/04/20 06:08:34;;;;;;;4.00;1.23;;;;;;;-148.56;100.00;61375.16;5056245;28;20028;-27
2021/04/20 06:11:00;;;;;;;7.63;1.38;;;;;;;25.44;29.92;96623.97;5060128;28;20041;-27
2021/04/20 06:13:26;;;;;;;8.65;0.93;;;;;;;25.42;29.96;96620.59;5061154;28;20051;-29
2021/04/20 06:15:53;;;;;;;2.80;1.05;;;;;;;25.39;29.94;96620.75;5059588;28;20060;-24
2021/04/20 06:18:36;;;;;;;3.33;1.02;;;;;;;-148.56;100.00;61375.16;5042633;28;20149;-28
2021/04/20 06:21:51;;;;;;;1.65;1.10;;;;;;;-148.56;100.00;61375.16;5042739;28;20900;-24
2021/04/20 06:24:17;;;;;;;2.28;1.00;;;;;;;-148.56;100.00;61375.16;5041343;28;20362;-27
2021/04/20 06:26:44;;;;;;;1.70;1.00;;;;;;;-148.56;100.00;61375.16;5046200;28;20031;-28
2021/04/20 06:30:08;;;;;;;1.52;1.00;;;;;;;-148.56;100.00;61375.16;5050923;28;20042;-26
2021/04/20 06:33:33;;;;;;;1.30;1.05;;;;;;;-148.56;100.00;61375.16;5052111;28;20028;-27
2021/04/20 06:36:04;;;;;;;4.68;1.17;;;;;;;-148.56;100.00;61375.16;5055773;28;20058;-27
2021/04/20 06:39:27;;;;;;;2.17;0.90;;;;;;;-148.56;100.00;61375.16;5046813;28;20032;-26
2021/04/20 06:42:27;;;;;;;2.55;1.10;;;;;;;25.39;29.94;96620.75;5040418;28;20120;-26
2021/04/20 06:44:59;;;;;;;3.50;0.93;;;;;;;25.47;30.04;96634.28;5032990;28;20093;-28
2021/04/20 06:47:32;;;;;;;3.08;1.90;;;;;;;25.48;29.76;96635.16;5044967;28;20029;-26
2021/04/20 06:50:00;;;;;;;10.25;3.50;;;;;;;25.48;29.47;96629.91;5046424;28;20115;-26
2021/04/20 06:52:54;;;;;;;19.00;3.92;;;;;;;25.45;29.15;96630.91;5044842;28;20025;-24
2021/04/20 06:55:33;;;;;;;12.43;4.72;;;;;;;25.43;28.55;96635.38;5043603;28;20040;-25
2021/04/20 06:58:16;;;;;;;5.80;4.63;;;;;;;25.40;28.31;96631.16;5049294;28;20035;-29
2021/04/20 07:00:52;;;;;;;6.15;3.90;;;;;;;25.38;28.47;96634.78;5038358;28;20029;-27
2021/04/20 07:03:29;;;;;;;7.88;5.82;;;;;;;25.35;28.37;96634.97;5033190;28;20060;-27
2021/04/20 07:06:04;;;;;;;8.45;6.03;;;;;;;25.31;28.18;96632.50;5060128;28;20234;-26
2021/04/20 07:09:07;;;;;;;8.82;5.05;;;;;;;25.29;28.25;96633.53;5044574;28;20029;-24
2021/04/20 07:11:35;;;;;;;5.85;4.13;;;;;;;25.28;28.08;96635.28;5041257;28;20024;-24
2021/04/20 07:14:02;;;;;;;4.97;4.20;;;;;;;25.25;28.22;96630.19;5038241;28;20238;-26
2021/04/20 07:16:28;;;;;;;4.75;4.20;;;;;;;25.25;27.94;96629.38;5028379;28;20060;-26
2021/04/20 07:18:56;;;;;;;6.63;4.80;;;;;;;25.23;28.00;96637.31;5044969;28;20083;-24
2021/04/20 07:21:40;;;;;;;11.00;5.18;;;;;;;25.22;28.03;96640.88;5044884;28;20727;-24
2021/04/20 07:24:22;;;;;;;6.88;5.00;;;;;;;25.21;28.04;96635.69;5043864;28;20732;-28
2021/04/20 07:27:06;;;;;;;7.72;4.13;;;;;;;25.19;28.17;96630.53;5040351;28;20115;-29
2021/04/20 07:29:52;;;;;;;6.55;5.00;;;;;;;25.19;27.91;96630.53;5047955;28;20085;-26
2021/04/20 07:32:33;;;;;;;8.02;4.82;;;;;;;25.19;27.91;96641.03;5061026;28;20052;-22
2021/04/20 07:35:20;;;;;;;6.35;4.93;;;;;;;25.17;27.83;96630.63;5068424;28;20081;-25
2021/04/20 07:37:51;;;;;;;5.57;4.88;;;;;;;25.15;27.89;96631.63;5062128;28;20302;-25
2021/04/20 07:40:32;;;;;;;7.05;5.47;;;;;;;25.14;27.84;96627.31;5056867;28;20034;-25
2021/04/20 07:43:23;;;;;;;7.05;5.95;;;;;;;25.12;27.70;96637.03;5062318;28;20050;-23
2021/04/20 07:45:52;;;;;;;6.93;5.65;;;;;;;25.11;27.74;96632.72;5055819;28;20480;-26
2021/04/20 07:48:21;;;;;;;7.47;6.00;;;;;;;25.10;27.76;96636.28;5067890;28;20140;-28
2021/04/20 07:50:47;;;;;;;7.57;6.20;;;;;;;25.07;27.65;96629.41;5069170;28;20107;-26
2021/04/20 07:53:29;;;;;;;7.82;6.32;;;;;;;25.06;27.82;96632.97;5068401;28;20062;-26
2021/04/20 07:56:07;;;;;;;9.73;6.72;;;;;;;25.04;27.86;96627.81;5047686;28;20111;-25
2021/04/20 07:58:42;;;;;;;8.48;7.00;;;;;;;25.03;27.96;96626.13;5061355;28;20035;-28
2021/04/20 08:01:25;;;;;;;8.25;6.70;;;;;;;25.03;27.86;96626.13;5059942;28;20666;-27
2021/04/20 08:03:52;;;;;;;36.45;6.65;;;;;;;25.01;28.04;96620.09;5062150;28;20758;-24
2021/04/20 08:06:24;;;;;;;14.95;11.68;;;;;;;25.01;27.78;96621.84;5056686;28;20040;-25
2021/04/20 08:08:56;;;;;;;15.65;11.25;;;;;;;24.94;27.66;96620.50;5050787;28;20021;-27
2021/04/20 08:11:35;;;;;;;15.80;12.35;;;;;;;24.84;27.36;96615.75;5058911;28;20090;-22
2021/04/20 08:14:25;;;;;;;13.75;11.70;;;;;;;24.74;27.24;96617.94;5052784;28;20365;-25
2021/04/20 08:17:13;;;;;;;12.55;10.82;;;;;;;24.66;26.83;96628.84;5059086;28;20738;-27
2021/04/20 08:20:04;;;;;;;11.40;10.02;;;;;;;24.56;26.66;96626.75;5057658;28;20028;-26
2021/04/20 08:22:30;;;;;;;11.35;9.02;;;;;;;24.43;26.61;96626.50;5042412;28;20089;-29
2021/04/20 08:25:09;;;;;;;9.90;7.50;;;;;;;24.37;27.01;96619.84;5044527;28;20028;-25
2021/04/20 08:27:47;;;;;;;11.15;6.68;;;;;;;24.35;26.94;96629.53;5056136;28;20056;-25
2021/04/20 08:30:18;;;;;;;7.60;5.10;;;;;;;24.35;27.13;96625.16;5056491;28;20093;-26
2021/04/20 08:32:45;;;;;;;7.47;4.38;;;;;;;24.38;27.24;96614.53;5051111;28;20028;-26
2021/04/20 08:35:17;;;;;;;6.30;4.25;;;;;;;24.43;27.55;96621.28;5068437;28;20131;-29
2021/04/20 08:37:58;;;;;;;8.70;3.92;;;;;;;24.48;27.60;96619.31;5060708;28;20032;-24
2021/04/20 08:40:47;;;;;;;5.03;3.65;;;;;;;24.52;27.60;96613.81;5064533;28;20053;-25
2021/04/20 08:43:27;;;;;;;11.80;9.20;;;;;;;24.59;27.21;96616.97;5058755;28;20051;-23
2021/04/20 08:46:13;;;;;;;7.97;5.07;;;;;;;24.63;27.20;96615.03;5068760;28;20032;-26
2021/04/20 08:48:49;;;;;;;4.72;3.67;;;;;;;24.67;27.50;96614.81;5066190;28;20563;-27
2021/04/20 08:51:19;;;;;;;6.30;3.20;;;;;;;24.71;27.47;96618.09;5064486;28;20028;-25
2021/04/20 08:54:13;;;;;;;4.95;3.35;;;;;;;24.75;27.56;96605.72;5069429;28;20028;-26
2021/04/20 08:56:58;;;;;;;10.20;6.75;;;;;;;24.79;27.31;96613.31;5060559;28;20182;-25
2021/04/20 08:59:29;;;;;;;6.53;3.80;;;;;;;24.83;27.38;96618.41;5070628;28;20428;-29
2021/04/20 09:01:57;;;;;;;4.45;3.20;;;;;;;24.85;27.63;96606.09;5064560;28;20027;-25
2021/04/20 09:04:56;;;;;;;6.60;3.20;;;;;;;24.89;27.58;96602.38;5062088;28;20520;-25
2021/04/20 09:07:30;;;;;;;8.13;3.03;;;;;;;24.92;27.53;96607.47;5068413;28;20521;-26
2021/04/20 09:09:55;;;;;;;5.45;2.97;;;;;;;24.95;27.83;96602.09;5070825;28;20555;-27
2021/04/20 09:12:22;;;;;;;5.28;2.78;;;;;;;24.98;27.72;96598.44;5067013;28;20036;-24
2021/04/20 09:14:47;;;;;;;6.05;3.00;;;;;;;25.00;27.94;96605.28;5066438;28;20566;-24
2021/04/20 09:17:17;;;;;;;6.05;2.95;;;;;;;25.03;27.64;96594.66;5053389;28;20032;-23
2021/04/20 09:20:00;;;;;;;7.55;3.00;;;;;;;25.06;27.82;96596.28;5058551;28;20028;-27
2021/04/20 09:22:49;;;;;;;5.30;2.72;;;;;;;25.08;28.04;96589.16;5063564;28;20059;-26
2021/04/20 09:25:24;;;;;;;5.32;3.30;;;;;;;25.11;27.85;96590.75;5069049;28;20024;-23
2021/04/20 09:28:15;;;;;;;4.68;2.78;;;;;;;25.13;28.04;96594.16;5070969;28;20035;-24
2021/04/20 09:30:47;;;;;;;5.10;2.67;;;;;;;25.15;28.05;96592.28;5067466;28;20508;-25
2021/04/20 09:33:36;;;;;;;5.30;2.58;;;;;;;25.17;28.20;96585.22;5067644;28;20064;-26
2021/04/20 09:36:01;;;;;;;3.67;2.60;;;;;;;25.18;28.20;96589.50;5063412;28;20036;-23
2021/04/20 09:38:27;;;;;;;4.45;2.85;;;;;;;25.20;28.06;96579.78;5066532;28;20110;-24
2021/04/20 09:40:52;;;;;;;5.75;2.85;;;;;;;25.22;28.28;96587.56;5068260;28;20035;-24
2021/04/20 09:43:24;;;;;;;3.72;2.70;;;;;;;25.23;28.02;96584.00;5063488;28;20057;-24
2021/04/20 09:45:56;;;;;;;5.72;2.70;;;;;;;25.24;28.11;96578.69;5061469;28;20033;-25
2021/04/20 09:48:41;;;;;;;5.20;2.72;;;;;;;25.26;28.22;96576.84;5066328;28;21041;-25
2021/04/20 09:51:21;;;;;;;5.07;2.55;;;;;;;25.28;28.19;96580.22;5067827;28;20047;-27
2021/04/20 09:54:22;;;;;;;3.75;2.40;;;;;;;25.29;28.30;96581.91;5048403;28;20498;-22
2021/04/20 09:56:56;;;;;;;4.72;2.50;;;;;;;25.31;28.41;96582.69;5068935;28;20091;-25
2021/04/20 09:59:28;;;;;;;3.90;2.20;;;;;;;25.33;28.14;96579.97;5066709;28;20106;-26
2021/04/20 10:01:59;;;;;;;4.15;2.50;;;;;;;25.34;28.16;96581.66;5049469;28;20027;-26
2021/04/20 10:04:40;;;;;;;4.18;2.40;;;;;;;25.36;28.23;96584.19;5065579;28;20319;-26
2021/04/20 10:08:02;;;;;;;3.25;2.35;;;;;;;25.37;28.38;96583.25;5068288;28;20027;-25
2021/04/20 10:10:41;;;;;;;3.80;2.55;;;;;;;25.38;28.49;96577.09;5064365;28;20047;-26
2021/04/20 10:13:26;;;;;;;3.60;2.30;;;;;;;25.39;28.35;96579.63;5060045;28;20032;-25
2021/04/20 10:16:13;;;;;;;4.43;2.55;;;;;;;25.37;28.47;96580.66;5065461;28;20115;-24
2021/04/20 10:18:46;;;;;;;3.75;2.13;;;;;;;25.42;28.37;96583.84;5063560;28;20025;-27
2021/04/20 10:22:06;;;;;;;3.70;2.10;;;;;;;25.44;28.31;96574.13;5061811;28;20020;-26
2021/04/20 10:24:31;;;;;;;3.58;2.47;;;;;;;25.45;28.49;96575.81;5041995;28;20931;-23
2021/04/20 10:27:13;;;;;;;2.95;2.20;;;;;;;25.46;28.50;96574.88;5040872;28;20040;-27
2021/04/20 10:30:00;;;;;;;2.85;2.08;;;;;;;25.47;28.53;96562.63;5063267;28;20107;-24
2021/04/20 10:32:41;;;;;;;3.42;2.53;;;;;;;25.48;28.48;96567.78;5062094;28;20078;-28
2021/04/20 10:35:11;;;;;;;2.38;2.15;;;;;;;25.49;28.44;96561.59;5044190;28;20095;-25
2021/04/20 10:37:38;;;;;;;2.75;2.00;;;;;;;25.49;28.36;96564.22;5055630;28;21133;-24
2021/04/20 10:40:17;;;;;;;2.88;2.20;;;;;;;25.51;28.61;96557.09;5074675;28;20574;-26
2021/04/20 10:42:49;;;;;;;7.60;2.50;;;;;;;25.52;28.51;96558.78;5058967;28;20204;-24
2021/04/20 10:45:17;;;;;;;;;;;;;;;25.53;28.49;96550.00;5043390;28;20501;-27
2021/04/20 10:47:47;;;;;;;5.05;2.80;;;;;;;25.54;28.34;96550.84;5059255;28;20411;-25
2021/04/20 10:50:17;;;;;;;6.07;2.58;;;;;;;25.53;28.37;96552.63;5046699;28;20063;-27
2021/04/20 10:52:42;;;;;;;4.30;2.60;;;;;;;25.54;28.45;96546.44;5072544;28;20027;-24
2021/04/20 10:55:11;;;;;;;3.72;2.50;;;;;;;25.55;28.50;96553.38;5055354;28;20028;-25
2021/04/20 10:57:46;;;;;;;3.53;2.30;;;;;;;25.57;28.53;96545.47;5042580;28;20071;-27
2021/04/20 11:00:16;;;;;;;7.05;2.90;;;;;;;25.57;28.39;96550.72;5063136;28;20044;-23
2021/04/20 11:02:44;;;;;;;2.80;2.10;;;;;;;25.58;28.47;96544.53;5059318;28;20042;-23
2021/04/20 11:05:10;;;;;;;3.92;2.05;;;;;;;25.57;28.50;96535.81;5063866;28;20035;-27
2021/04/20 11:07:42;;;;;;;4.95;2.70;;;;;;;25.60;28.50;96541.81;5053729;28;20028;-28
2021/04/20 11:10:09;;;;;;;6.97;2.60;;;;;;;25.58;28.42;96536.66;5066515;28;20077;-27
2021/04/20 11:12:47;;;;;;;2.97;2.20;;;;;;;25.61;28.49;96533.88;5069613;28;20124;-26
2021/04/20 11:15:26;;;;;;;2.50;1.92;;;;;;;25.61;28.40;96531.25;5073072;28;20078;-28
2021/04/20 11:17:55;;;;;;;3.30;2.15;;;;;;;25.62;28.41;96532.94;5069151;28;20883;-25
2021/04/20 11:20:39;;;;;;;3.47;2.17;;;;;;;25.63;28.52;96533.78;5063048;28;20036;-25
2021/04/20 11:23:10;;;;;;;2.53;1.75;;;;;;;25.63;28.43;96525.91;5063267;28;20574;-23
2021/04/20 11:25:53;;;;;;;6.47;1.88;;;;;;;25.65;28.72;96521.41;5064380;28;20039;-28
2021/04/20 11:28:21;;;;;;;5.53;2.42;;;;;;;25.65;28.61;96521.41;5060530;28;20036;-26
2021/04/20 11:30:53;;;;;;;4.45;2.20;;;;;;;25.65;28.48;96518.78;5061703;28;20032;-24
2021/04/20 11:33:25;;;;;;;3.58;2.20;;;;;;;25.65;28.43;96517.00;5062493;28;20629;-26
2021/04/20 11:35:51;;;;;;;5.55;2.53;;;;;;;25.67;28.68;96522.19;5047900;28;20043;-27
2021/04/20 11:38:16;;;;;;;5.88;1.95;;;;;;;25.68;28.52;96527.34;5062342;28;20024;-27
2021/04/20 11:40:45;;;;;;;4.10;2.53;;;;;;;25.68;28.54;96522.09;5059635;28;20032;-25
2021/04/20 11:43:14;;;;;;;4.78;2.50;;;;;;;25.69;28.56;96523.78;5059235;28;20736;-27
2021/04/20 11:45:40;;;;;;;3.58;2.67;;;;;;;25.70;28.35;96524.59;5066079;28;20057;-26
2021/04/20 11:48:11;;;;;;;3.63;2.28;;;;;;;25.70;28.55;96514.09;5064214;28;20079;-28
2021/04/20 11:50:40;;;;;;;4.38;2.35;;;;;;;25.69;28.40;96515.91;5062399;28;20028;-27
2021/04/20 11:53:06;;;;;;;2.45;2.10;;;;;;;25.65;28.35;96511.75;5059892;28;20685;-26
2021/04/20 11:55:43;;;;;;;5.40;3.10;;;;;;;25.71;28.44;96515.81;5060283;28;20028;-28